createdAt,value
2018-07-27T00:00:05.051Z,12.50
2018-07-27T00:02:38.797Z,14.60
2018-07-27T00:05:12.852Z,12.70
2018-07-27T00:07:46.945Z,10.13
2018-07-27T00:10:21.820Z,10.77
2018-07-27T00:12:55.550Z,12.37
2018-07-27T00:15:29.241Z,12.63
2018-07-27T00:18:03.368Z,11.10
2018-07-27T00:20:37.134Z,14.07
2018-07-27T00:23:11.257Z,10.80
2018-07-27T00:25:45.144Z,11.17
2018-07-27T00:28:19.204Z,13.07
2018-07-27T00:30:53.438Z,14.73
2018-07-27T00:33:27.617Z,13.10
2018-07-27T00:36:01.490Z,13.20
2018-07-27T00:38:35.744Z,14.30
2018-07-27T00:41:09.838Z,14.00
2018-07-27T00:43:43.828Z,14.67
2018-07-27T00:46:17.987Z,11.67
2018-07-27T00:48:51.953Z,13.00
2018-07-27T00:51:26.061Z,11.70
2018-07-27T00:54:00.709Z,14.83
2018-07-27T00:56:34.690Z,12.80
2018-07-27T00:59:08.746Z,11.30
2018-07-27T01:01:42.741Z,14.70
2018-07-27T01:04:16.884Z,11.23
2018-07-27T01:06:50.671Z,11.47
2018-07-27T01:09:24.760Z,12.80
2018-07-27T01:11:58.641Z,12.83
2018-07-27T01:14:32.619Z,10.70
2018-07-27T01:17:06.539Z,12.60
2018-07-27T01:19:40.785Z,11.53
2018-07-27T01:22:15.096Z,13.33
2018-07-27T01:24:49.132Z,11.17
2018-07-27T01:27:23.116Z,12.93
2018-07-27T01:29:57.216Z,18.93
2018-07-27T01:32:31.164Z,16.50
2018-07-27T01:35:05.234Z,12.73
2018-07-27T01:37:39.402Z,14.43
2018-07-27T01:40:13.622Z,12.70
2018-07-27T01:42:47.831Z,12.60
2018-07-27T01:45:21.950Z,13.00
2018-07-27T01:47:55.660Z,15.43
2018-07-27T01:50:29.513Z,11.60
2018-07-27T01:53:04.144Z,10.97
2018-07-27T01:55:38.256Z,15.80
2018-07-27T01:58:12.278Z,12.27
2018-07-27T02:00:46.021Z,12.00
2018-07-27T02:03:20.125Z,12.10
2018-07-27T02:05:54.823Z,10.83
2018-07-27T02:08:28.722Z,11.53
2018-07-27T02:11:02.552Z,12.20
2018-07-27T02:13:36.757Z,12.30
2018-07-27T02:16:11.570Z,12.60
2018-07-27T02:18:45.700Z,13.43
2018-07-27T02:21:19.703Z,14.00
2018-07-27T02:23:54.068Z,12.70
2018-07-27T02:26:28.204Z,15.10
2018-07-27T02:29:02.025Z,14.97
2018-07-27T02:31:35.929Z,13.60
2018-07-27T02:34:10.830Z,13.50
2018-07-27T02:36:44.843Z,16.43
2018-07-27T02:39:18.673Z,14.07
2018-07-27T02:41:52.579Z,16.93
2018-07-27T02:44:26.503Z,14.90
2018-07-27T02:47:00.422Z,14.73
2018-07-27T02:49:34.613Z,14.30
2018-07-27T02:52:09.429Z,15.00
2018-07-27T02:54:43.293Z,13.83
2018-07-27T02:57:17.444Z,16.87
2018-07-27T02:59:51.349Z,16.90
2018-07-27T03:02:25.255Z,20.57
2018-07-27T03:04:59.520Z,14.27
2018-07-27T03:07:33.402Z,13.77
2018-07-27T03:10:07.569Z,16.03
2018-07-27T03:12:41.395Z,13.07
2018-07-27T03:15:15.398Z,12.70
2018-07-27T03:17:49.372Z,14.20
2018-07-27T03:20:23.195Z,16.27
2018-07-27T03:22:57.183Z,18.70
2018-07-27T03:25:31.139Z,20.13
2018-07-27T03:28:05.194Z,16.90
2018-07-27T03:30:39.124Z,15.60
2018-07-27T03:33:14.134Z,17.90
2018-07-27T03:35:47.941Z,24.93
2018-07-27T03:38:21.965Z,13.93
2018-07-27T03:40:55.891Z,16.03
2018-07-27T03:43:30.554Z,15.63
2018-07-27T03:46:04.581Z,15.87
2018-07-27T03:48:38.799Z,15.50
2018-07-27T03:51:12.745Z,14.93
2018-07-27T03:53:46.793Z,17.80
2018-07-27T03:56:21.775Z,17.27
2018-07-27T03:58:55.661Z,13.97
2018-07-27T04:01:29.656Z,14.10
2018-07-27T04:04:03.591Z,15.30
2018-07-27T04:06:37.811Z,17.10
2018-07-27T04:09:13.380Z,16.40
2018-07-27T04:11:47.491Z,17.10
2018-07-27T04:14:21.407Z,16.47
2018-07-27T04:16:55.688Z,17.70
2018-07-27T04:19:30.657Z,15.30
2018-07-27T04:22:04.521Z,15.63
2018-07-27T04:24:38.942Z,15.40
2018-07-27T04:27:12.760Z,15.47
2018-07-27T04:29:46.822Z,13.10
2018-07-27T04:32:21.018Z,15.47
2018-07-27T04:34:55.035Z,18.03
2018-07-27T04:37:29.390Z,22.23
2018-07-27T04:40:03.259Z,17.30
2018-07-27T04:42:37.501Z,18.30
2018-07-27T04:45:11.437Z,16.43
2018-07-27T04:47:45.368Z,20.10
2018-07-27T04:50:19.385Z,17.93
2018-07-27T04:52:54.436Z,18.13
2018-07-27T04:55:28.314Z,16.83
2018-07-27T04:58:03.020Z,20.53
2018-07-27T05:00:37.015Z,15.80
2018-07-27T05:03:11.003Z,18.50
2018-07-27T05:05:44.860Z,15.67
2018-07-27T05:08:19.076Z,16.80
2018-07-27T05:10:53.171Z,19.17
2018-07-27T05:13:27.221Z,21.27
2018-07-27T05:16:01.277Z,17.13
2018-07-27T05:18:35.215Z,29.83
2018-07-27T05:21:09.286Z,19.73
2018-07-27T05:23:43.375Z,17.70
2018-07-27T05:26:17.260Z,18.67
2018-07-27T05:28:51.171Z,18.60
2018-07-27T05:31:24.948Z,20.30
2018-07-27T05:33:58.906Z,19.43
2018-07-27T05:36:33.991Z,17.20
2018-07-27T05:39:07.975Z,18.10
2018-07-27T05:41:41.777Z,19.50
2018-07-27T05:44:15.646Z,20.60
2018-07-27T05:46:50.439Z,16.20
2018-07-27T05:49:24.489Z,17.70
2018-07-27T05:51:58.674Z,16.40
2018-07-27T05:54:32.541Z,18.43
2018-07-27T05:57:06.701Z,21.30
2018-07-27T05:59:40.603Z,17.87
2018-07-27T06:02:15.434Z,15.60
2018-07-27T06:04:49.309Z,20.93
2018-07-27T06:07:23.479Z,15.67
2018-07-27T06:09:57.322Z,15.13
2018-07-27T06:12:31.434Z,15.20
2018-07-27T06:15:05.287Z,21.70
2018-07-27T06:17:39.626Z,17.70
2018-07-27T06:20:13.627Z,14.70
2018-07-27T06:22:47.997Z,14.37
2018-07-27T06:25:21.897Z,11.87
2018-07-27T06:27:55.876Z,13.60
2018-07-27T06:30:29.984Z,12.10
2018-07-27T06:33:03.915Z,14.20
2018-07-27T06:35:37.881Z,14.60
2018-07-27T06:38:12.720Z,16.30
2018-07-27T06:40:46.508Z,14.50
2018-07-27T06:43:20.403Z,12.23
2018-07-27T06:45:54.216Z,13.50
2018-07-27T06:48:28.307Z,11.93
2018-07-27T06:51:02.266Z,11.80
2018-07-27T06:53:36.428Z,13.20
2018-07-27T06:56:10.626Z,11.00
2018-07-27T06:58:45.735Z,12.80
2018-07-27T07:01:19.622Z,11.27
2018-07-27T07:03:53.590Z,16.40
2018-07-27T07:06:27.636Z,11.03
2018-07-27T07:09:01.640Z,12.60
2018-07-27T07:11:35.851Z,9.90
2018-07-27T07:14:10.885Z,10.10
2018-07-27T07:16:45.042Z,9.20
2018-07-27T07:19:18.970Z,7.97
2018-07-27T07:21:53.003Z,9.33
2018-07-27T07:24:26.885Z,9.47
2018-07-27T07:27:01.160Z,7.50
2018-07-27T07:29:35.145Z,13.70
2018-07-27T07:32:09.297Z,11.63
2018-07-27T07:34:43.285Z,9.30
2018-07-27T07:37:17.665Z,8.90
2018-07-27T07:39:51.392Z,9.67
2018-07-27T07:42:25.341Z,10.23
2018-07-27T07:44:59.163Z,8.50
2018-07-27T07:47:33.343Z,8.23
2018-07-27T07:50:07.217Z,9.93
2018-07-27T07:52:41.219Z,6.73
2018-07-27T07:55:15.076Z,9.37
2018-07-27T07:57:48.827Z,9.30
2018-07-27T08:00:22.824Z,8.47
2018-07-27T08:02:56.759Z,7.50
2018-07-27T08:05:30.908Z,6.93
2018-07-27T08:08:04.854Z,8.43
2018-07-27T08:10:38.710Z,8.13
2018-07-27T08:13:12.688Z,9.63
2018-07-27T08:15:46.608Z,6.53
2018-07-27T08:18:20.656Z,9.10
2018-07-27T08:20:55.365Z,11.43
2018-07-27T08:23:29.304Z,5.97
2018-07-27T08:27:05.375Z,5.27
2018-07-27T08:29:39.645Z,4.90
2018-07-27T08:32:13.680Z,8.50
2018-07-27T08:34:47.629Z,6.60
2018-07-27T08:37:21.746Z,7.90
2018-07-27T08:39:55.817Z,6.37
2018-07-27T08:42:30.123Z,5.97
2018-07-27T08:45:04.508Z,6.83
2018-07-27T08:47:38.401Z,7.63
2018-07-27T08:50:12.773Z,7.37
2018-07-27T08:52:47.490Z,6.97
2018-07-27T08:55:21.499Z,7.10
2018-07-27T08:57:55.412Z,6.30
2018-07-27T09:00:42.988Z,6.90
2018-07-27T09:03:17.169Z,7.50
2018-07-27T09:05:51.144Z,7.10
2018-07-27T09:08:24.986Z,7.87
2018-07-27T09:10:58.989Z,9.03
2018-07-27T09:13:32.912Z,7.70
2018-07-27T09:16:06.770Z,6.50
2018-07-27T09:18:40.678Z,13.20
2018-07-27T09:21:14.643Z,6.93
2018-07-27T09:23:48.660Z,6.93
2018-07-27T09:26:22.749Z,6.70
2018-07-27T09:28:56.826Z,6.80
2018-07-27T09:31:30.617Z,8.17
2018-07-27T09:34:04.693Z,7.00
2018-07-27T09:36:38.481Z,7.37
2018-07-27T09:39:14.655Z,8.67
2018-07-27T09:41:48.604Z,10.17
2018-07-27T09:44:22.670Z,7.87
2018-07-27T09:46:56.838Z,8.20
2018-07-27T09:49:30.763Z,8.67
2018-07-27T09:52:04.750Z,8.07
2018-07-27T09:54:38.812Z,7.40
2018-07-27T09:57:12.527Z,5.60
2018-07-27T09:59:46.734Z,6.37
2018-07-27T10:02:20.829Z,6.70
2018-07-27T10:04:54.870Z,5.60
2018-07-27T10:07:29.514Z,6.53
2018-07-27T10:10:03.638Z,4.87
2018-07-27T10:12:37.409Z,7.40
2018-07-27T10:15:12.433Z,6.17
2018-07-27T10:17:46.636Z,6.37
2018-07-27T10:20:20.681Z,7.10
2018-07-27T10:22:54.648Z,8.93
2018-07-27T10:25:29.983Z,8.03
2018-07-27T10:28:11.052Z,6.27
2018-07-27T10:30:45.832Z,5.43
2018-07-27T10:33:19.873Z,7.20
2018-07-27T10:35:53.903Z,5.90
2018-07-27T10:38:27.740Z,6.20
2018-07-27T10:41:01.479Z,5.63
2018-07-27T10:43:35.960Z,5.30
2018-07-27T10:46:10.050Z,6.73
2018-07-27T10:48:43.823Z,6.90
2018-07-27T10:51:17.708Z,5.50
2018-07-27T10:53:51.638Z,5.13
2018-07-27T10:56:25.833Z,6.17
2018-07-27T10:58:59.873Z,5.10
2018-07-27T11:01:34.170Z,4.77
2018-07-27T11:04:07.927Z,4.97
2018-07-27T11:06:41.988Z,5.83
2018-07-27T11:09:15.858Z,5.07
2018-07-27T11:11:49.825Z,5.17
2018-07-27T11:14:23.968Z,4.93
2018-07-27T11:16:57.818Z,4.80
2018-07-27T11:19:31.731Z,4.87
2018-07-27T11:22:05.798Z,6.50
2018-07-27T11:24:39.678Z,6.63
2018-07-27T11:27:13.732Z,8.50
2018-07-27T11:29:47.688Z,5.70
2018-07-27T11:32:21.612Z,7.27
2018-07-27T11:34:55.516Z,11.67
2018-07-27T11:37:29.512Z,7.03
2018-07-27T11:40:03.774Z,7.40
2018-07-27T11:42:37.630Z,6.37
2018-07-27T11:45:11.837Z,6.83
2018-07-27T11:47:45.950Z,6.70
2018-07-27T11:50:20.092Z,8.00
2018-07-27T11:52:53.890Z,5.80
2018-07-27T11:55:28.898Z,6.57
2018-07-27T11:58:03.070Z,8.17
2018-07-27T12:00:38.001Z,9.73
2018-07-27T12:03:12.127Z,6.60
2018-07-27T12:05:45.893Z,6.47
2018-07-27T12:08:19.979Z,6.33
2018-07-27T12:10:54.067Z,6.10
2018-07-27T12:13:28.096Z,8.33
2018-07-27T12:16:02.195Z,6.13
2018-07-27T12:18:36.024Z,6.30
2018-07-27T12:21:10.048Z,8.10
2018-07-27T12:23:43.950Z,18.03
2018-07-27T12:26:12.676Z,6.40
2018-07-27T12:28:41.474Z,6.30
2018-07-27T12:31:10.113Z,7.70
2018-07-27T12:33:38.831Z,9.40
2018-07-27T12:36:07.765Z,5.73
2018-07-27T12:38:36.680Z,6.70
2018-07-27T12:41:05.788Z,5.57
2018-07-27T12:43:34.674Z,8.17
2018-07-27T12:46:03.473Z,6.97
2018-07-27T12:48:32.505Z,5.80
2018-07-27T12:51:01.438Z,7.10
2018-07-27T12:53:30.477Z,7.50
2018-07-27T12:55:59.244Z,5.10
2018-07-27T12:58:27.958Z,6.50
2018-07-27T13:00:56.676Z,4.83
2018-07-27T13:03:25.266Z,4.93
2018-07-27T13:05:54.337Z,6.60
2018-07-27T13:11:15.494Z,6.20
2018-07-27T13:13:44.233Z,10.00
2018-07-27T13:16:12.927Z,6.83
2018-07-27T13:18:41.601Z,4.50
2018-07-27T13:21:10.431Z,5.33
2018-07-27T13:23:44.219Z,5.80
2018-07-27T13:28:43.560Z,5.33
2018-07-27T13:31:12.886Z,7.10
2018-07-27T13:33:55.434Z,5.30
2018-07-27T13:36:24.090Z,6.10
2018-07-27T13:38:52.941Z,7.67
2018-07-27T13:41:21.609Z,5.13
2018-07-27T13:43:50.546Z,5.40
2018-07-27T13:46:19.311Z,11.03
2018-07-27T13:48:48.036Z,8.13
2018-07-27T13:53:42.091Z,7.10
2018-07-27T13:56:10.959Z,6.23
2018-07-27T13:58:40.262Z,9.40
2018-07-27T14:01:09.249Z,7.97
2018-07-27T14:03:38.161Z,11.10
2018-07-27T14:06:07.144Z,9.13
2018-07-27T14:08:36.192Z,6.03
2018-07-27T14:11:05.125Z,5.70
2018-07-27T14:13:33.824Z,5.40
2018-07-27T14:16:02.776Z,5.60
2018-07-27T14:18:31.622Z,5.97
2018-07-27T14:21:00.536Z,7.47
2018-07-27T14:23:29.710Z,6.33
2018-07-27T14:25:59.801Z,9.13
2018-07-27T14:28:28.649Z,10.33
2018-07-27T14:30:57.485Z,6.63
2018-07-27T14:33:26.285Z,6.30
2018-07-27T14:35:55.161Z,8.07
2018-07-27T14:38:23.972Z,5.47
2018-07-27T14:40:52.851Z,5.33
2018-07-27T14:43:22.189Z,5.33
2018-07-27T14:45:51.049Z,6.27
2018-07-27T14:48:20.230Z,5.57
2018-07-27T14:50:49.359Z,6.97
2018-07-27T14:53:18.818Z,7.97
2018-07-27T14:55:48.386Z,6.13
2018-07-27T14:58:17.440Z,6.20
2018-07-27T15:00:46.549Z,7.43
2018-07-27T15:03:15.639Z,9.43
2018-07-27T15:05:45.866Z,5.50
2018-07-27T15:08:14.894Z,5.17
2018-07-27T15:10:43.875Z,6.97
2018-07-27T15:13:13.244Z,8.33
2018-07-27T15:15:42.162Z,6.20
2018-07-27T15:18:11.059Z,6.10
2018-07-27T15:20:40.114Z,8.50
2018-07-27T15:23:09.052Z,6.70
2018-07-27T15:25:37.957Z,6.20
2018-07-27T15:28:06.830Z,7.83
2018-07-27T15:30:35.759Z,5.73
2018-07-27T15:33:04.791Z,7.80
2018-07-27T15:35:33.804Z,7.23
2018-07-27T15:38:02.558Z,7.23
2018-07-27T15:40:31.521Z,4.83
2018-07-27T15:43:00.352Z,9.77
2018-07-27T15:45:29.329Z,6.90
2018-07-27T15:47:58.197Z,6.17
2018-07-27T15:50:27.359Z,5.60
2018-07-27T15:52:56.153Z,6.23
2018-07-27T15:55:25.412Z,5.70
2018-07-27T15:57:54.409Z,6.40
2018-07-27T16:00:23.194Z,4.63
2018-07-27T16:02:52.179Z,7.07
2018-07-27T16:05:21.247Z,5.73
2018-07-27T16:07:50.166Z,6.27
2018-07-27T16:10:19.161Z,5.40
2018-07-27T16:12:47.988Z,6.67
2018-07-27T16:15:16.939Z,7.83
2018-07-27T16:17:45.743Z,8.50
2018-07-27T16:20:14.930Z,4.57
2018-07-27T16:22:43.897Z,10.00
2018-07-27T16:25:12.714Z,5.40
2018-07-27T16:27:41.579Z,4.90
2018-07-27T16:30:10.419Z,4.80
2018-07-27T16:32:39.320Z,5.10
2018-07-27T16:35:08.408Z,7.00
2018-07-27T16:37:37.351Z,6.40
2018-07-27T16:40:06.184Z,10.03
2018-07-27T16:42:35.150Z,7.63
2018-07-27T16:45:06.285Z,5.37
2018-07-27T16:47:35.083Z,10.93
2018-07-27T16:50:04.217Z,7.30
2018-07-27T16:52:33.062Z,5.57
2018-07-27T16:55:01.826Z,7.80
2018-07-27T16:57:30.604Z,5.13
2018-07-27T16:59:59.562Z,6.13
2018-07-27T17:02:28.461Z,5.87
2018-07-27T17:04:57.242Z,4.60
2018-07-27T17:07:27.225Z,5.20
2018-07-27T17:09:56.135Z,7.80
2018-07-27T17:12:26.225Z,5.10
2018-07-27T17:14:56.973Z,5.80
2018-07-27T17:17:26.036Z,6.03
2018-07-27T17:19:54.950Z,4.87
2018-07-27T17:22:23.754Z,6.80
2018-07-27T17:24:52.827Z,8.00
2018-07-27T17:27:21.753Z,9.47
2018-07-27T17:29:50.829Z,5.30
2018-07-27T17:32:19.993Z,6.00
2018-07-27T17:34:49.109Z,5.33
2018-07-27T17:37:18.437Z,6.73
2018-07-27T17:39:47.643Z,6.60
2018-07-27T17:42:16.648Z,5.50
2018-07-27T17:44:46.581Z,5.70
2018-07-27T17:47:15.505Z,5.70
2018-07-27T17:49:44.317Z,5.40
2018-07-27T17:52:13.193Z,5.03
2018-07-27T17:54:42.286Z,5.93
2018-07-27T17:57:11.274Z,5.10
2018-07-27T17:59:40.160Z,6.57
2018-07-27T18:02:09.286Z,6.90
2018-07-27T18:04:38.123Z,5.77
2018-07-27T18:07:07.153Z,6.00
2018-07-27T18:09:36.458Z,6.13
2018-07-27T18:12:05.436Z,5.20
2018-07-27T18:14:34.254Z,6.90
2018-07-27T18:17:03.167Z,7.93
2018-07-27T18:19:31.957Z,6.03
2018-07-27T18:22:00.915Z,5.87
2018-07-27T18:24:29.830Z,6.80
2018-07-27T18:26:58.682Z,5.93
2018-07-27T18:29:27.493Z,7.50
2018-07-27T18:31:56.458Z,8.13
2018-07-27T18:34:26.333Z,7.10
2018-07-27T18:36:57.250Z,7.93
2018-07-27T18:39:26.174Z,11.23
2018-07-27T18:41:55.067Z,8.00
2018-07-27T18:44:24.085Z,7.70
2018-07-27T18:46:53.066Z,12.67
2018-07-27T18:49:21.938Z,7.13
2018-07-27T18:51:50.755Z,9.93
2018-07-27T18:54:19.689Z,9.63
2018-07-27T18:56:48.438Z,8.03
2018-07-27T18:59:17.345Z,15.37
2018-07-27T19:01:46.118Z,8.67
2018-07-27T19:04:15.144Z,10.93
2018-07-27T19:06:44.106Z,10.63
2018-07-27T19:09:13.815Z,8.57
2018-07-27T19:11:42.685Z,9.47
2018-07-27T19:14:11.519Z,7.57
2018-07-27T19:16:40.498Z,9.50
2018-07-27T19:19:09.601Z,10.23
2018-07-27T19:21:38.588Z,9.30
2018-07-27T19:24:07.593Z,9.53
2018-07-27T19:26:36.675Z,11.10
2018-07-27T19:29:05.520Z,12.53
2018-07-27T19:31:34.467Z,8.87
2018-07-27T19:34:03.469Z,9.83
2018-07-27T19:36:32.432Z,9.30
2018-07-27T19:39:01.370Z,8.83
2018-07-27T19:41:30.669Z,9.07
2018-07-27T19:43:59.707Z,10.43
2018-07-27T19:46:28.835Z,11.83
2018-07-27T19:49:01.085Z,11.50
2018-07-27T19:51:29.887Z,12.60
2018-07-27T19:53:58.801Z,10.17
2018-07-27T19:56:27.665Z,11.03
2018-07-27T19:58:56.549Z,12.70
2018-07-27T20:01:25.464Z,9.80
2018-07-27T20:03:54.441Z,9.63
2018-07-27T20:06:23.320Z,12.33
2018-07-27T20:08:52.036Z,13.73
2018-07-27T20:11:21.117Z,10.73
2018-07-27T20:13:49.990Z,10.50
2018-07-27T20:16:18.778Z,11.40
2018-07-27T20:18:47.651Z,13.23
2018-07-27T20:21:16.589Z,13.93
2018-07-27T20:23:45.572Z,14.47
2018-07-27T20:26:14.453Z,12.07
2018-07-27T20:28:43.130Z,11.13
2018-07-27T20:31:12.985Z,12.07
2018-07-27T20:33:41.902Z,10.50
2018-07-27T20:36:10.796Z,11.40
2018-07-27T20:38:39.616Z,13.10
2018-07-27T20:41:08.560Z,15.60
2018-07-27T20:43:37.308Z,13.07
2018-07-27T20:46:06.065Z,11.90
2018-07-27T20:48:34.811Z,12.90
2018-07-27T20:51:03.811Z,11.60
2018-07-27T20:53:32.693Z,11.97
2018-07-27T20:56:01.599Z,23.73
2018-07-27T20:58:30.465Z,15.00
2018-07-27T21:00:59.318Z,13.40
2018-07-27T21:03:28.135Z,13.70
2018-07-27T21:05:57.098Z,13.57
2018-07-27T21:08:25.933Z,11.57
2018-07-27T21:10:55.837Z,12.50
2018-07-27T21:13:24.794Z,11.23
2018-07-27T21:15:53.967Z,10.90
2018-07-27T21:18:22.718Z,9.63
2018-07-27T21:20:51.788Z,13.00
2018-07-27T21:23:20.668Z,14.53
2018-07-27T21:25:49.395Z,19.20
2018-07-27T21:28:18.358Z,16.83
2018-07-27T21:30:47.116Z,15.10
2018-07-27T21:33:16.078Z,15.07
2018-07-27T21:35:44.844Z,11.47
2018-07-27T21:38:13.664Z,11.53
2018-07-27T21:40:42.398Z,15.80
2018-07-27T21:43:11.320Z,17.30
2018-07-27T21:45:40.217Z,14.60
2018-07-27T21:48:10.207Z,14.47
2018-07-27T21:50:39.129Z,14.70
2018-07-27T21:53:07.975Z,16.70
2018-07-27T21:55:36.745Z,14.73
2018-07-27T21:58:05.657Z,14.37
2018-07-27T22:00:34.766Z,15.30
2018-07-27T22:03:05.409Z,14.70
2018-07-27T22:05:34.518Z,13.00
2018-07-27T22:08:03.390Z,13.33
2018-07-27T22:10:32.275Z,15.97
2018-07-27T22:13:07.604Z,15.93
2018-07-27T22:15:36.284Z,14.43
2018-07-27T22:18:05.426Z,21.03
2018-07-27T22:20:34.267Z,14.97
2018-07-27T22:23:02.956Z,19.50
2018-07-27T22:25:31.974Z,15.50
2018-07-27T22:28:00.829Z,17.17
2018-07-27T22:30:29.631Z,14.43
2018-07-27T22:32:58.418Z,13.53
2018-07-27T22:35:27.355Z,14.67
2018-07-27T22:37:56.135Z,22.10
2018-07-27T22:40:26.227Z,16.00
2018-07-27T22:42:55.137Z,14.37
2018-07-27T22:45:23.949Z,19.67
2018-07-27T22:47:52.870Z,13.47
2018-07-27T22:50:21.638Z,17.73
2018-07-27T22:52:50.344Z,18.93
2018-07-27T22:55:19.072Z,15.07
2018-07-27T22:57:47.896Z,12.33
2018-07-27T23:00:16.882Z,18.53
2018-07-27T23:02:45.689Z,14.13
2018-07-27T23:05:14.512Z,14.20
2018-07-27T23:07:43.495Z,15.07
2018-07-27T23:10:12.306Z,12.00
2018-07-27T23:12:41.180Z,12.57
2018-07-27T23:15:11.755Z,13.83
2018-07-27T23:17:40.646Z,17.73
2018-07-27T23:20:12.345Z,16.40
2018-07-27T23:22:41.507Z,15.60
2018-07-27T23:25:10.347Z,12.20
2018-07-27T23:27:39.024Z,14.50
2018-07-27T23:30:10.164Z,14.37
2018-07-27T23:32:38.910Z,12.03
2018-07-27T23:35:07.832Z,16.00
2018-07-27T23:37:36.690Z,16.03
2018-07-27T23:40:06.134Z,14.07
2018-07-27T23:42:34.940Z,12.43
2018-07-27T23:45:03.684Z,13.30
2018-07-27T23:47:32.591Z,13.90
2018-07-27T23:50:01.354Z,12.83
2018-07-27T23:52:30.232Z,16.60
2018-07-27T23:54:59.031Z,14.00
2018-07-27T23:57:27.828Z,17.10
2018-07-27T23:59:56.593Z,14.63
